Driggs, Idaho
Current Conditions -  °F | °C
As of 2:56 PM on Tuesday 25 Nov 2014 (Local Time) from KDIJ Reporting Station
Overcast Overcast  
Wind Chill: 26°   Ceiling: 1400
Heat Index: 36°   Visibility: 10mi
Dew Point: 32°   Wind: 16mph
Humidity: 86%   Direction: 230°SW
Pressure: 30.08"   Gusts: NA
Location:  43.72°N, 111.11°W
Report Text: KDIJ 252156Z AUTO 23014KT 10SM BKN014 BKN022 OVC042 02/00 A3008 RMK AO2 T00220000 UPB01E48 P0000 SLP182
Loading
Personal Weather Stations






























Interactive Weather Map New forecast layout! Learn more

10-Day Weather Forecast

Advertisements
Track Severe Weather on mobile